Time;durP1;ratioP1;P1;durP2;ratioP2;P2;SDS_P1;SDS_P2;PMS_P1;PMS_P2;Temp;Humidity;BMP_temperature;BMP_pressure;BME280_temperature;BME280_humidity;BME280_pressure;Samples;Min_cycle;Max_cycle;Signal;HPM_P1;HPM_P2
2022/10/24 00:00:45;;;;;;;4.43;1.27;;;20.10;83.90;;;;;;4989513;28;20439;-78
2022/10/24 00:03:12;;;;;;;22.00;1.77;;;20.10;85.10;;;;;;4988628;28;20479;-79
2022/10/24 00:05:45;;;;;;;4.10;1.38;;;19.90;86.10;;;;;;4989304;28;20038;-79
2022/10/24 00:08:11;;;;;;;6.75;1.42;;;19.80;86.70;;;;;;4988074;28;20355;-79
2022/10/24 00:10:41;;;;;;;10.98;1.50;;;19.60;89.10;;;;;;4989204;28;20033;-79
2022/10/24 00:13:07;;;;;;;7.50;1.13;;;19.40;90.00;;;;;;4989924;28;20033;-77
2022/10/24 00:15:32;;;;;;;11.25;1.95;;;19.30;91.10;;;;;;4989456;28;20022;-78
2022/10/24 00:17:58;;;;;;;10.50;2.88;;;19.10;91.60;;;;;;4989088;28;20114;-78
2022/10/24 00:20:23;;;;;;;6.13;1.25;;;19.00;92.50;;;;;;4989552;28;20052;-80
2022/10/24 00:22:49;;;;;;;6.75;1.98;;;19.00;93.00;;;;;;4992957;28;20057;-79
2022/10/24 00:25:15;;;;;;;6.18;1.13;;;19.00;93.70;;;;;;4991437;28;20523;-79
2022/10/24 00:27:40;;;;;;;16.70;1.90;;;19.00;94.00;;;;;;4996906;28;20023;-78
2022/10/24 00:30:06;;;;;;;4.82;1.67;;;19.00;95.40;;;;;;4989766;28;20499;-79
2022/10/24 00:32:32;;;;;;;2.47;1.27;;;19.00;96.50;;;;;;4998530;28;20030;-78
2022/10/24 00:34:58;;;;;;;3.88;1.95;;;19.00;98.00;;;;;;4994545;28;20034;-76
2022/10/24 00:37:25;;;;;;;5.00;1.63;;;18.90;98.30;;;;;;4998037;28;20042;-78
2022/10/24 00:39:50;;;;;;;2.30;0.95;;;18.90;98.40;;;;;;4994682;28;20380;-79
2022/10/24 00:42:16;;;;;;;3.63;0.90;;;18.90;99.30;;;;;;4992942;28;20041;-79
2022/10/24 00:44:42;;;;;;;2.70;1.58;;;18.90;99.90;;;;;;4998814;28;20026;-77
2022/10/24 00:47:19;;;;;;;3.95;1.67;;;18.80;99.90;;;;;;4991178;28;20101;-78
2022/10/24 00:50:00;;;;;;;6.10;1.10;;;18.80;99.90;;;;;;4990799;28;20022;-75
2022/10/24 00:52:45;;;;;;;5.18;1.17;;;18.70;99.90;;;;;;4994489;28;20112;-79
2022/10/24 00:55:13;;;;;;;4.38;1.38;;;18.70;99.90;;;;;;4993409;28;20026;-76
2022/10/24 00:57:49;;;;;;;4.88;1.67;;;18.70;99.90;;;;;;4993147;28;20026;-78
2022/10/24 01:00:25;;;;;;;1.35;1.25;;;18.70;99.90;;;;;;4991194;28;20033;-76
2022/10/24 01:02:51;;;;;;;6.50;1.60;;;18.70;99.90;;;;;;4990710;28;20029;-80
2022/10/24 01:05:20;;;;;;;6.15;1.33;;;18.70;99.90;;;;;;4991390;28;20026;-81
2022/10/24 01:08:20;;;;;;;22.33;1.58;;;18.60;99.90;;;;;;4991730;28;20610;-77
2022/10/24 01:11:04;;;;;;;3.45;0.95;;;18.60;99.90;;;;;;4991895;28;20041;-77
2022/10/24 01:13:39;;;;;;;3.90;1.25;;;18.50;99.90;;;;;;4991612;28;20049;-79
2022/10/24 01:16:16;;;;;;;3.30;1.40;;;18.50;99.90;;;;;;4991289;28;20502;-81
2022/10/24 01:18:53;;;;;;;3.97;1.30;;;18.40;99.90;;;;;;4991257;28;20050;-78
2022/10/24 01:21:54;;;;;;;2.97;1.52;;;18.30;99.90;;;;;;4991270;28;20137;-76
2022/10/24 01:24:44;;;;;;;1.85;1.15;;;18.30;99.90;;;;;;4991500;28;20025;-76
2022/10/24 01:27:28;;;;;;;4.93;1.23;;;18.30;99.90;;;;;;4993301;28;20030;-79
2022/10/24 01:30:10;;;;;;;3.55;1.70;;;18.20;99.90;;;;;;4991529;28;20033;-78
2022/10/24 01:32:38;;;;;;;1.40;1.00;;;18.20;99.90;;;;;;4996609;28;20042;-75
2022/10/24 01:35:34;;;;;;;4.77;1.07;;;18.20;99.90;;;;;;4998870;28;20076;-78
2022/10/24 01:38:05;;;;;;;6.63;1.95;;;18.20;99.90;;;;;;4997407;28;20284;-75
2022/10/24 01:40:47;;;;;;;1.58;1.15;;;18.30;99.90;;;;;;4997595;28;20034;-75
2022/10/24 01:43:18;;;;;;;1.90;1.05;;;18.30;99.90;;;;;;4995127;28;20094;-77
2022/10/24 01:45:47;;;;;;;4.20;1.55;;;18.30;99.90;;;;;;4995494;28;20050;-74
2022/10/24 01:48:18;;;;;;;1.42;0.70;;;18.30;99.90;;;;;;4996682;28;20040;-78
2022/10/24 01:50:46;;;;;;;3.17;1.17;;;18.30;99.90;;;;;;4998040;28;20038;-74
2022/10/24 01:53:13;;;;;;;1.67;1.00;;;18.20;99.90;;;;;;4995285;28;20014;-75
2022/10/24 01:55:40;;;;;;;1.35;0.80;;;18.10;99.90;;;;;;4997241;28;20062;-76
2022/10/24 01:58:07;;;;;;;0.73;0.73;;;18.00;99.90;;;;;;4996997;28;20101;-78
2022/10/24 02:00:33;;;;;;;1.13;1.08;;;17.90;99.90;;;;;;4997562;28;20029;-78
2022/10/24 02:03:25;;;;;;;2.83;0.68;;;17.80;99.90;;;;;;4996325;28;20045;-76
2022/10/24 02:06:04;;;;;;;8.55;1.40;;;17.70;99.90;;;;;;4993993;28;20045;-76
2022/10/24 02:08:37;;;;;;;4.13;0.75;;;17.70;99.90;;;;;;4996041;28;20113;-76
2022/10/24 02:11:06;;;;;;;17.05;1.50;;;17.60;99.90;;;;;;4998175;28;20050;-79
2022/10/24 02:13:35;;;;;;;4.53;0.57;;;17.70;99.90;;;;;;4997398;28;20019;-75
2022/10/24 02:16:03;;;;;;;4.22;1.30;;;17.60;99.90;;;;;;4997559;28;20026;-78
2022/10/24 02:18:30;;;;;;;7.75;1.77;;;17.60;99.90;;;;;;4997548;28;20232;-78
2022/10/24 02:21:08;;;;;;;0.68;0.68;;;17.70;99.90;;;;;;4994484;28;20125;-75
2022/10/24 02:23:51;;;;;;;5.55;0.60;;;17.80;99.90;;;;;;4993453;28;20031;-77
2022/10/24 02:26:25;;;;;;;3.80;0.82;;;17.90;99.90;;;;;;4996168;28;20022;-80
2022/10/24 02:28:57;;;;;;;3.92;1.73;;;18.10;99.90;;;;;;4994264;28;20041;-74
2022/10/24 02:31:30;;;;;;;2.72;1.00;;;18.10;99.90;;;;;;5000595;28;20026;-79
2022/10/24 02:33:57;;;;;;;11.45;0.98;;;18.10;99.90;;;;;;4997618;28;20025;-76
2022/10/24 02:36:27;;;;;;;2.70;1.08;;;17.20;99.90;;;;;;4992434;28;20034;-79
2022/10/24 02:38:55;;;;;;;2.60;0.82;;;17.00;99.90;;;;;;4993255;28;20109;-77
2022/10/24 02:41:28;;;;;;;2.22;0.93;;;17.00;99.90;;;;;;4998987;28;20026;-77
2022/10/24 02:43:55;;;;;;;1.10;1.10;;;16.70;99.90;;;;;;4991019;28;20093;-75
2022/10/24 02:46:21;;;;;;;0.57;0.57;;;16.50;99.90;;;;;;4990474;28;20053;-76
2022/10/24 02:48:52;;;;;;;3.10;1.08;;;16.30;99.90;;;;;;4990529;28;20396;-76
2022/10/24 02:51:20;;;;;;;3.75;0.80;;;16.20;99.90;;;;;;4990923;28;20039;-77
2022/10/24 02:53:46;;;;;;;2.83;1.43;;;16.20;99.90;;;;;;4990997;28;20046;-76
2022/10/24 02:56:12;;;;;;;9.90;1.38;;;16.20;99.90;;;;;;4992080;28;20038;-76
2022/10/24 02:58:38;;;;;;;3.92;0.57;;;16.10;99.90;;;;;;4992544;28;20029;-79
2022/10/24 03:01:03;;;;;;;5.57;1.38;;;16.10;99.90;;;;;;4993656;28;20030;-74
2022/10/24 03:03:29;;;;;;;1.67;0.80;;;15.90;99.90;;;;;;4994279;28;20069;-75
2022/10/24 03:05:55;;;;;;;0.60;0.60;;;15.70;99.90;;;;;;4995542;28;20026;-75
2022/10/24 03:08:20;;;;;;;1.42;1.33;;;15.60;99.90;;;;;;4995947;28;20101;-79
2022/10/24 03:10:46;;;;;;;0.60;0.57;;;15.50;99.90;;;;;;4994940;28;20042;-78
2022/10/24 03:13:12;;;;;;;6.18;0.75;;;15.50;99.90;;;;;;4996392;28;20037;-75
2022/10/24 03:15:37;;;;;;;2.33;0.65;;;15.40;99.90;;;;;;5000064;28;20057;-80
2022/10/24 03:18:03;;;;;;;0.60;0.57;;;15.40;99.90;;;;;;5004257;28;20030;-75
2022/10/24 03:20:29;;;;;;;3.80;1.10;;;15.30;99.90;;;;;;5005144;28;20035;-78
2022/10/24 03:22:54;;;;;;;1.80;1.23;;;15.30;99.90;;;;;;5004566;28;20106;-78
2022/10/24 03:25:20;;;;;;;2.47;0.60;;;15.20;99.90;;;;;;5003314;28;20026;-79
2022/10/24 03:27:46;;;;;;;1.70;0.88;;;15.20;99.90;;;;;;4997075;28;20034;-76
2022/10/24 03:30:11;;;;;;;5.13;1.27;;;15.10;99.90;;;;;;5001954;28;20279;-78
2022/10/24 03:32:37;;;;;;;3.33;0.98;;;15.10;99.90;;;;;;5003224;28;20038;-78
2022/10/24 03:35:03;;;;;;;3.67;1.55;;;15.00;99.90;;;;;;4998822;28;20026;-77
2022/10/24 03:37:29;;;;;;;2.60;0.93;;;14.90;99.90;;;;;;4996735;28;20832;-75
2022/10/24 03:39:54;;;;;;;4.25;1.73;;;14.90;99.90;;;;;;5003588;28;20026;-76
2022/10/24 03:42:20;;;;;;;3.88;0.90;;;14.80;99.90;;;;;;5001725;28;20306;-76
2022/10/24 03:44:46;;;;;;;5.97;1.23;;;14.80;99.90;;;;;;5003182;28;20033;-77
2022/10/24 03:47:12;;;;;;;2.05;1.42;;;14.70;99.90;;;;;;5005474;28;20179;-76
2022/10/24 03:49:38;;;;;;;5.35;1.23;;;14.70;99.90;;;;;;5004601;28;20031;-75
2022/10/24 03:52:04;;;;;;;0.77;0.77;;;14.70;99.90;;;;;;5003367;28;20041;-76
2022/10/24 03:54:30;;;;;;;2.10;1.65;;;14.70;99.90;;;;;;5000075;28;20032;-75
2022/10/24 03:56:55;;;;;;;2.00;0.47;;;15.00;99.90;;;;;;5000059;28;20038;-76
2022/10/24 03:59:21;;;;;;;4.82;0.60;;;15.10;99.90;;;;;;5004114;28;20053;-79
2022/10/24 04:01:47;;;;;;;8.35;1.02;;;15.10;99.90;;;;;;5007180;28;20022;-78
2022/10/24 04:04:13;;;;;;;28.02;1.63;;;15.20;99.90;;;;;;5004163;28;20475;-78
2022/10/24 04:06:39;;;;;;;0.40;0.40;;;15.30;99.90;;;;;;4997303;28;20030;-75
2022/10/24 04:09:05;;;;;;;0.68;0.68;;;15.30;99.90;;;;;;4993931;28;20022;-76
2022/10/24 04:11:31;;;;;;;0.40;0.40;;;15.30;99.90;;;;;;4993330;28;20069;-76
2022/10/24 04:13:59;;;;;;;5.72;1.42;;;15.30;99.90;;;;;;4992842;28;20033;-77
2022/10/24 04:16:26;;;;;;;1.20;0.57;;;15.20;99.90;;;;;;4992810;28;20034;-75
2022/10/24 04:18:51;;;;;;;4.15;0.60;;;15.20;99.90;;;;;;4992744;28;20033;-76
2022/10/24 04:21:18;;;;;;;3.20;0.75;;;15.10;99.90;;;;;;4994085;28;20054;-75
2022/10/24 04:23:43;;;;;;;7.72;1.15;;;15.10;99.90;;;;;;5008376;28;20022;-77
2022/10/24 04:26:14;;;;;;;1.23;0.85;;;15.00;99.90;;;;;;5007102;28;20026;-77
2022/10/24 04:28:40;;;;;;;1.88;0.38;;;15.00;99.90;;;;;;5003854;28;20049;-80
2022/10/24 04:31:06;;;;;;;0.93;0.85;;;14.90;99.90;;;;;;4995939;28;20439;-80
2022/10/24 04:33:32;;;;;;;5.82;0.98;;;14.80;99.90;;;;;;4993207;28;20022;-77
2022/10/24 04:35:57;;;;;;;1.15;0.45;;;14.80;99.90;;;;;;4998188;28;20420;-78
2022/10/24 04:38:23;;;;;;;0.80;0.50;;;14.70;99.90;;;;;;5001405;28;20023;-80
2022/10/24 04:40:51;;;;;;;6.65;1.85;;;14.70;99.90;;;;;;5003043;28;20029;-75
2022/10/24 04:43:17;;;;;;;1.00;0.82;;;14.60;99.90;;;;;;5001618;28;20030;-80
2022/10/24 04:45:43;;;;;;;1.42;0.43;;;14.50;99.90;;;;;;4993857;28;20042;-75
2022/10/24 04:48:09;;;;;;;2.55;0.70;;;14.50;99.90;;;;;;5001097;28;20088;-75
2022/10/24 04:50:35;;;;;;;2.20;1.10;;;14.50;99.90;;;;;;5001691;28;20026;-76
2022/10/24 04:53:01;;;;;;;0.47;0.40;;;14.50;99.90;;;;;;5001085;28;20058;-76
2022/10/24 04:55:27;;;;;;;0.40;0.40;;;14.50;99.90;;;;;;4998166;28;20061;-77
2022/10/24 04:57:53;;;;;;;1.58;0.60;;;;;;;;;;4998928;28;20193;-77
2022/10/24 05:00:19;;;;;;;0.43;0.40;;;14.40;99.90;;;;;;4998411;28;20092;-77
2022/10/24 05:02:45;;;;;;;0.95;0.95;;;14.40;99.90;;;;;;4997802;28;20057;-77
2022/10/24 05:05:11;;;;;;;4.13;0.38;;;14.40;99.90;;;;;;5000299;28;20022;-75
2022/10/24 05:07:37;;;;;;;4.45;1.00;;;14.40;99.90;;;;;;4999979;28;20084;-75
2022/10/24 05:10:04;;;;;;;2.15;0.60;;;14.20;99.90;;;;;;5000663;28;20109;-79
2022/10/24 05:12:30;;;;;;;0.75;0.52;;;14.30;99.90;;;;;;4997027;28;20038;-79
2022/10/24 05:14:55;;;;;;;3.40;1.67;;;14.20;99.90;;;;;;5000129;28;20018;-75
2022/10/24 05:17:21;;;;;;;10.90;2.05;;;14.20;99.90;;;;;;5002592;28;20027;-76
2022/10/24 05:19:49;;;;;;;2.30;0.98;;;14.20;99.90;;;;;;5002635;28;20026;-80
2022/10/24 05:22:14;;;;;;;2.25;0.75;;;14.30;99.90;;;;;;5002620;28;20046;-78
2022/10/24 05:24:40;;;;;;;2.75;0.85;;;14.30;99.90;;;;;;5009731;28;20037;-79
2022/10/24 05:27:06;;;;;;;7.53;1.48;;;;;;;;;;5007686;28;20034;-78
2022/10/24 05:29:32;;;;;;;0.20;0.20;;;14.30;99.90;;;;;;5008705;28;20057;-77
2022/10/24 05:31:57;;;;;;;0.80;0.55;;;14.30;99.90;;;;;;5010950;28;20034;-79
2022/10/24 05:34:24;;;;;;;0.82;0.77;;;;;;;;;;5014624;28;20097;-77
2022/10/24 05:36:49;;;;;;;4.57;1.45;;;14.20;99.90;;;;;;5014026;28;20041;-80
2022/10/24 05:39:15;;;;;;;2.75;1.13;;;14.20;99.90;;;;;;5011122;28;20356;-76
2022/10/24 05:41:40;;;;;;;1.80;1.67;;;14.20;99.90;;;;;;5010097;28;20106;-79
2022/10/24 05:44:06;;;;;;;3.97;0.80;;;14.20;99.90;;;;;;5011429;28;20090;-78
2022/10/24 05:46:32;;;;;;;2.25;1.40;;;13.80;99.90;;;;;;5013521;28;20146;-78
2022/10/24 05:49:00;;;;;;;5.53;1.48;;;14.20;99.90;;;;;;5011191;28;20050;-78
2022/10/24 05:51:26;;;;;;;1.17;1.07;;;14.20;99.90;;;;;;5010357;28;20030;-79
2022/10/24 05:53:52;;;;;;;1.83;1.50;;;14.10;99.90;;;;;;5012397;28;20057;-75
2022/10/24 05:56:18;;;;;;;5.95;0.73;;;14.20;99.90;;;;;;5010241;28;20030;-76
2022/10/24 05:58:43;;;;;;;1.98;0.95;;;14.20;99.90;;;;;;5008891;28;20046;-78
2022/10/24 06:01:09;;;;;;;1.77;0.55;;;14.20;99.90;;;;;;4994399;28;20027;-81
2022/10/24 06:03:35;;;;;;;4.75;0.93;;;14.30;99.90;;;;;;4991887;28;20083;-76
2022/10/24 06:06:08;;;;;;;3.88;0.80;;;14.40;99.90;;;;;;4991182;28;20023;-76
2022/10/24 06:08:35;;;;;;;0.85;0.60;;;14.40;99.90;;;;;;4986983;28;20027;-75
2022/10/24 06:11:01;;;;;;;2.20;1.20;;;;;;;;;;4987713;28;20034;-75
2022/10/24 06:13:27;;;;;;;7.50;0.70;;;14.40;99.90;;;;;;5005421;28;20046;-78
2022/10/24 06:15:53;;;;;;;1.85;1.17;;;;;;;;;;4989120;28;20023;-75
2022/10/24 06:18:19;;;;;;;1.85;0.60;;;14.40;99.90;;;;;;4989977;28;20019;-74
2022/10/24 06:20:45;;;;;;;1.27;0.45;;;14.40;99.90;;;;;;4990028;28;20131;-75
2022/10/24 06:23:11;;;;;;;1.95;0.68;;;14.30;99.90;;;;;;4991012;28;20023;-77
2022/10/24 06:25:39;;;;;;;5.50;1.35;;;14.40;99.90;;;;;;4989475;28;20037;-78
2022/10/24 06:28:06;;;;;;;2.22;0.50;;;14.40;99.90;;;;;;4980267;28;20027;-75
2022/10/24 06:30:32;;;;;;;2.10;1.08;;;14.40;99.90;;;;;;4981535;28;20054;-78
2022/10/24 06:32:58;;;;;;;13.48;2.08;;;14.20;99.90;;;;;;4991370;28;20038;-78
2022/10/24 06:35:23;;;;;;;0.30;0.30;;;14.20;99.90;;;;;;4994044;28;20074;-75
2022/10/24 06:37:49;;;;;;;1.92;0.93;;;14.20;99.90;;;;;;4992026;28;20026;-75
2022/10/24 06:40:16;;;;;;;1.35;0.82;;;14.20;99.90;;;;;;4985756;28;20026;-75
2022/10/24 06:42:42;;;;;;;5.00;1.67;;;14.10;99.90;;;;;;4981206;28;20093;-76
2022/10/24 06:45:08;;;;;;;4.90;1.10;;;14.00;99.90;;;;;;4992176;28;20590;-75
2022/10/24 06:47:33;;;;;;;2.53;1.52;;;14.00;99.90;;;;;;4992466;28;20549;-76
2022/10/24 06:49:59;;;;;;;5.93;1.50;;;14.20;99.90;;;;;;4990301;28;20027;-77
2022/10/24 06:52:25;;;;;;;0.88;0.85;;;14.20;99.90;;;;;;4993551;28;20495;-76
2022/10/24 06:54:50;;;;;;;2.15;1.63;;;14.40;99.90;;;;;;4994996;28;20375;-76
2022/10/24 06:57:16;;;;;;;1.85;1.05;;;14.40;99.90;;;;;;4995053;28;20026;-77
2022/10/24 06:59:42;;;;;;;3.30;1.25;;;14.40;99.90;;;;;;4995155;28;20027;-77
2022/10/24 07:02:12;;;;;;;3.20;1.50;;;17.00;99.90;;;;;;4994691;28;20105;-77
2022/10/24 07:04:37;;;;;;;7.13;1.15;;;14.30;99.90;;;;;;4994893;28;20110;-76
2022/10/24 07:07:03;;;;;;;6.40;1.50;;;14.20;99.90;;;;;;4996721;28;20046;-78
2022/10/24 07:09:29;;;;;;;0.60;0.60;;;14.20;99.90;;;;;;4994763;28;20057;-77
2022/10/24 07:11:55;;;;;;;3.63;1.48;;;14.20;99.90;;;;;;4983696;28;20042;-77
2022/10/24 07:14:21;;;;;;;4.68;1.13;;;14.20;99.90;;;;;;4974786;28;20023;-77
2022/10/24 07:16:47;;;;;;;1.73;1.63;;;;;;;;;;4978048;28;20037;-76
2022/10/24 07:19:13;;;;;;;3.40;1.27;;;16.80;99.90;;;;;;4974241;28;20031;-76
2022/10/24 07:21:39;;;;;;;4.05;1.60;;;14.20;99.90;;;;;;4972806;28;20051;-77
2022/10/24 07:24:05;;;;;;;6.38;2.10;;;14.30;99.90;;;;;;4974274;28;20155;-76
2022/10/24 07:26:31;;;;;;;5.63;1.58;;;14.30;99.90;;;;;;4972441;28;20030;-76
2022/10/24 07:28:59;;;;;;;3.97;1.55;;;14.30;99.90;;;;;;4973625;28;20088;-77
2022/10/24 07:31:28;;;;;;;10.95;1.77;;;14.30;99.90;;;;;;4974424;28;20051;-77
2022/10/24 07:33:54;;;;;;;7.97;1.53;;;14.20;99.90;;;;;;4974359;28;20479;-77
2022/10/24 07:36:22;;;;;;;8.18;1.40;;;14.30;99.90;;;;;;4989159;28;20031;-78
2022/10/24 07:38:49;;;;;;;10.13;1.60;;;14.20;99.90;;;;;;4990228;28;20388;-77
2022/10/24 07:41:15;;;;;;;6.20;1.27;;;14.20;99.90;;;;;;4975475;28;20123;-78
2022/10/24 07:43:41;;;;;;;5.32;1.05;;;14.20;99.90;;;;;;4975936;28;20515;-76
2022/10/24 07:46:08;;;;;;;12.82;1.27;;;14.20;99.90;;;;;;4975197;28;20057;-78
2022/10/24 07:48:34;;;;;;;10.02;1.83;;;14.10;99.90;;;;;;4974762;28;20027;-77
2022/10/24 07:51:07;;;;;;;3.33;1.52;;;14.10;99.90;;;;;;4975377;28;20109;-77
2022/10/24 07:53:33;;;;;;;8.55;1.23;;;14.20;99.90;;;;;;4974280;28;20046;-76
2022/10/24 07:55:59;;;;;;;3.60;1.02;;;14.10;99.90;;;;;;4977118;28;20090;-76
2022/10/24 07:58:25;;;;;;;4.45;1.27;;;14.10;99.90;;;;;;4973807;28;20031;-77
2022/10/24 08:00:51;;;;;;;2.83;0.88;;;14.10;99.90;;;;;;4985328;28;20152;-77
2022/10/24 08:03:17;;;;;;;5.32;1.73;;;14.10;99.90;;;;;;4992201;28;20049;-76
2022/10/24 08:05:43;;;;;;;0.75;0.75;;;14.10;99.90;;;;;;4994024;28;20022;-76
2022/10/24 08:08:09;;;;;;;9.80;2.25;;;14.10;99.90;;;;;;4993488;28;20495;-77
2022/10/24 08:10:35;;;;;;;3.35;0.70;;;14.10;99.90;;;;;;4993381;28;20214;-77
2022/10/24 08:13:01;;;;;;;6.40;1.23;;;14.00;99.90;;;;;;4992991;28;20162;-76
2022/10/24 08:15:27;;;;;;;1.33;0.60;;;14.00;99.90;;;;;;4993297;28;20661;-77
2022/10/24 08:17:54;;;;;;;3.88;1.50;;;14.00;99.90;;;;;;4973573;28;20475;-76
2022/10/24 08:20:20;;;;;;;3.15;1.38;;;14.00;99.90;;;;;;4971929;28;20027;-76
2022/10/24 08:22:46;;;;;;;4.07;1.13;;;14.00;99.90;;;;;;4973727;28;20335;-77
2022/10/24 08:25:13;;;;;;;5.82;0.77;;;13.90;99.90;;;;;;4973626;28;20076;-76
2022/10/24 08:27:39;;;;;;;2.92;1.17;;;13.90;99.90;;;;;;4973739;28;20015;-76
2022/10/24 08:30:06;;;;;;;2.60;1.08;;;13.90;99.90;;;;;;4974593;28;20376;-79
2022/10/24 08:32:34;;;;;;;6.03;1.55;;;13.90;99.90;;;;;;4976959;28;20070;-75
2022/10/24 08:35:00;;;;;;;3.28;1.25;;;14.00;99.90;;;;;;4975902;28;20177;-77
2022/10/24 08:37:26;;;;;;;3.88;0.77;;;14.00;99.90;;;;;;4980714;28;20086;-77
2022/10/24 08:39:55;;;;;;;1.75;1.30;;;14.10;99.90;;;;;;4981805;28;20033;-76
2022/10/24 08:42:25;;;;;;;0.57;0.57;;;14.10;99.90;;;;;;4973869;28;20050;-79
2022/10/24 08:44:51;;;;;;;3.00;0.82;;;14.10;99.90;;;;;;4975959;28;20062;-76
2022/10/24 08:47:35;;;;;;;5.82;0.70;;;14.10;99.90;;;;;;4972764;28;20030;-77
2022/10/24 08:50:23;;;;;;;1.42;1.33;;;14.10;99.90;;;;;;4986923;28;20133;-76
2022/10/24 08:52:54;;;;;;;3.10;1.40;;;14.00;99.90;;;;;;4989793;28;20038;-76
2022/10/24 08:55:27;;;;;;;2.85;0.80;;;14.00;99.90;;;;;;4989760;28;20169;-78
2022/10/24 08:57:59;;;;;;;1.77;1.02;;;13.90;99.90;;;;;;4989076;28;20096;-77
2022/10/24 09:00:35;;;;;;;0.75;0.75;;;13.80;99.90;;;;;;4977552;28;20007;-76
2022/10/24 09:03:10;;;;;;;4.00;1.00;;;14.50;99.90;;;;;;4990934;28;20073;-75
2022/10/24 09:05:41;;;;;;;1.00;0.77;;;13.80;99.90;;;;;;4989090;28;20026;-76
2022/10/24 09:08:23;;;;;;;0.98;0.93;;;13.80;99.90;;;;;;4990036;28;20027;-77
2022/10/24 09:11:01;;;;;;;5.28;0.80;;;13.80;99.90;;;;;;4987687;28;20439;-77
2022/10/24 09:13:29;;;;;;;4.97;1.63;;;13.70;99.90;;;;;;4988670;28;20034;-78
2022/10/24 09:15:54;;;;;;;1.48;0.90;;;13.70;99.90;;;;;;4989336;28;20030;-75
2022/10/24 09:18:30;;;;;;;2.25;0.85;;;13.80;99.90;;;;;;4989585;28;20018;-78
2022/10/24 09:20:56;;;;;;;3.92;1.38;;;13.70;99.90;;;;;;4987663;28;20049;-77
2022/10/24 09:23:24;;;;;;;5.97;1.15;;;13.70;99.90;;;;;;4988069;28;20596;-76
2022/10/24 09:25:53;;;;;;;2.47;0.90;;;14.40;99.90;;;;;;4990048;28;20082;-74
2022/10/24 09:28:19;;;;;;;3.00;0.75;;;13.70;99.90;;;;;;4989906;28;20030;-78
2022/10/24 09:30:46;;;;;;;0.40;0.40;;;13.70;99.90;;;;;;4989769;28;20093;-77
2022/10/24 09:33:39;;;;;;;3.58;1.13;;;13.60;99.90;;;;;;4988524;28;20026;-77
2022/10/24 09:36:11;;;;;;;0.85;0.65;;;13.70;99.90;;;;;;4988819;28;20022;-76
2022/10/24 09:38:39;;;;;;;4.75;0.85;;;13.60;99.90;;;;;;4972113;28;20101;-77
2022/10/24 09:41:27;;;;;;;1.50;0.90;;;13.60;99.90;;;;;;4969660;28;20030;-77
2022/10/24 09:43:57;;;;;;;0.90;0.80;;;13.60;99.90;;;;;;4968379;28;20570;-78
2022/10/24 09:46:33;;;;;;;0.90;0.60;;;13.60;99.90;;;;;;4969234;28;20035;-77
2022/10/24 09:49:11;;;;;;;1.65;0.70;;;13.60;99.90;;;;;;4969440;28;20050;-75
2022/10/24 09:51:40;;;;;;;5.30;0.60;;;13.50;99.90;;;;;;4969770;28;20035;-77
2022/10/24 09:54:18;;;;;;;;;;;13.60;99.90;;;;;;4969038;28;20436;-77
2022/10/24 09:57:16;;;;;;;6.25;1.20;;;13.60;99.90;;;;;;4967872;28;20001;-77
2022/10/24 10:00:03;;;;;;;0.70;0.35;;;13.60;99.90;;;;;;4938964;28;20039;-77
2022/10/24 10:02:35;;;;;;;0.32;0.32;;;13.70;99.90;;;;;;4968685;28;20027;-77
2022/10/24 10:05:03;;;;;;;2.78;0.65;;;13.70;99.90;;;;;;4969133;28;20022;-76
2022/10/24 10:07:34;;;;;;;1.25;0.55;;;;;;;;;;4976031;28;20475;-76
2022/10/24 10:10:21;;;;;;;2.38;0.75;;;13.90;99.90;;;;;;4987064;28;20026;-77
2022/10/24 10:12:59;;;;;;;0.32;0.32;;;13.80;99.90;;;;;;4989041;28;20046;-77
2022/10/24 10:15:35;;;;;;;0.20;0.20;;;13.90;99.90;;;;;;5003254;28;20050;-76
2022/10/24 10:18:25;;;;;;;0.55;0.40;;;14.00;99.90;;;;;;4988343;28;20751;-77
2022/10/24 10:21:16;;;;;;;0.25;0.25;;;14.00;99.90;;;;;;4988104;28;20171;-77
2022/10/24 10:23:48;;;;;;;0.88;0.65;;;14.00;99.90;;;;;;4988118;28;20033;-76
2022/10/24 10:26:26;;;;;;;0.30;0.30;;;;;;;;;;4969791;28;20353;-77
2022/10/24 10:29:04;;;;;;;3.63;0.28;;;14.10;99.90;;;;;;4969194;28;20057;-77
2022/10/24 10:32:02;;;;;;;2.28;1.35;;;14.20;99.90;;;;;;4968651;28;20045;-77
2022/10/24 10:34:44;;;;;;;0.30;0.30;;;14.20;99.90;;;;;;4968817;28;20086;-76
2022/10/24 10:37:13;;;;;;;0.35;0.30;;;14.20;99.90;;;;;;4968511;28;20026;-77
2022/10/24 10:39:44;;;;;;;2.43;0.40;;;14.30;99.90;;;;;;4968552;28;20105;-77
2022/10/24 10:42:53;;;;;;;5.85;0.52;;;14.30;99.90;;;;;;4968491;28;20289;-77
2022/10/24 10:45:40;;;;;;;0.20;0.15;;;14.40;99.90;;;;;;4948953;28;20472;-77
2022/10/24 10:48:34;;;;;;;0.13;0.13;;;14.30;99.90;;;;;;4967229;28;20027;-77
2022/10/24 10:51:21;;;;;;;1.38;0.77;;;14.30;99.90;;;;;;4968349;28;20145;-77
2022/10/24 10:54:24;;;;;;;0.20;0.20;;;14.40;99.90;;;;;;4983304;28;20031;-78
2022/10/24 10:57:05;;;;;;;1.75;0.47;;;14.50;99.90;;;;;;4968407;28;20027;-77
2022/10/24 10:59:40;;;;;;;0.20;0.20;;;14.60;99.90;;;;;;4967402;28;20023;-78
2022/10/24 11:02:47;;;;;;;3.13;0.85;;;11.70;99.90;;;;;;4967001;28;20054;-77
2022/10/24 11:05:23;;;;;;;0.85;0.10;;;15.00;99.90;;;;;;4967167;28;20435;-77
2022/10/24 11:08:00;;;;;;;1.85;0.60;;;15.00;99.90;;;;;;4969228;28;20149;-77
2022/10/24 11:10:35;;;;;;;0.20;0.20;;;15.20;99.90;;;;;;4968609;28;20106;-78
2022/10/24 11:13:10;;;;;;;0.25;0.20;;;15.40;99.90;;;;;;4969216;28;20488;-78
2022/10/24 11:15:41;;;;;;;0.88;0.47;;;15.50;99.90;;;;;;4969063;28;20026;-78
2022/10/24 11:18:29;;;;;;;0.52;0.38;;;15.70;99.90;;;;;;4969922;28;20046;-78
2022/10/24 11:21:06;;;;;;;0.20;0.20;;;15.80;99.90;;;;;;4972491;28;20059;-77
2022/10/24 11:24:00;;;;;;;0.40;0.40;;;15.90;99.90;;;;;;4971736;28;20054;-77
2022/10/24 11:26:32;;;;;;;0.55;0.38;;;16.10;99.90;;;;;;4974223;28;20565;-77
2022/10/24 11:29:20;;;;;;;3.03;0.30;;;16.40;99.90;;;;;;4970118;28;20030;-77
2022/10/24 11:32:06;;;;;;;1.10;0.50;;;16.60;99.90;;;;;;4965961;28;20081;-77
2022/10/24 11:34:41;;;;;;;0.30;0.30;;;16.90;99.90;;;;;;4970870;28;20023;-76
2022/10/24 11:37:09;;;;;;;0.93;0.35;;;17.00;99.90;;;;;;4975715;28;20026;-81
2022/10/24 11:39:51;;;;;;;0.52;0.25;;;17.30;99.90;;;;;;4990954;28;20126;-78
2022/10/24 11:42:46;;;;;;;2.55;0.32;;;17.40;99.90;;;;;;4999276;28;20030;-79
2022/10/24 11:45:14;;;;;;;0.90;0.90;;;17.50;99.90;;;;;;4990758;28;20034;-78
2022/10/24 11:47:58;;;;;;;1.75;0.30;;;17.40;99.90;;;;;;4990606;28;20056;-79
2022/10/24 11:50:58;;;;;;;1.58;0.30;;;17.60;99.90;;;;;;4990143;28;20025;-82
2022/10/24 11:53:30;;;;;;;0.95;0.20;;;17.70;99.90;;;;;;4983861;28;20049;-79
2022/10/24 11:56:07;;;;;;;0.40;0.40;;;17.80;99.90;;;;;;4989709;28;20026;-78
2022/10/24 11:58:38;;;;;;;0.30;0.20;;;20.40;99.90;;;;;;4991455;28;20042;-83
2022/10/24 12:01:31;;;;;;;0.98;0.68;;;18.00;99.90;;;;;;4990705;28;20096;-81
2022/10/24 12:04:20;;;;;;;3.53;0.73;;;18.00;99.90;;;;;;4989619;28;20088;-84
2022/10/24 12:07:06;;;;;;;0.40;0.40;;;18.00;99.90;;;;;;4991125;28;20097;-80
2022/10/24 12:10:02;;;;;;;0.60;0.50;;;17.80;99.90;;;;;;4990276;28;20027;-82
2022/10/24 12:12:43;;;;;;;0.30;0.30;;;17.80;99.90;;;;;;5006608;28;20049;-76
2022/10/24 12:15:34;;;;;;;1.17;0.93;;;17.60;99.90;;;;;;5005832;28;20046;-76
2022/10/24 12:18:19;;;;;;;5.22;0.32;;;17.70;99.90;;;;;;4986366;28;20503;-77
2022/10/24 12:20:50;;;;;;;7.15;0.30;;;17.70;99.90;;;;;;4973898;28;20023;-76
2022/10/24 12:23:28;;;;;;;3.60;0.55;;;17.80;99.90;;;;;;4969932;28;20034;-78
2022/10/24 12:26:07;;;;;;;1.30;0.73;;;17.80;99.90;;;;;;4969776;28;20023;-77
2022/10/24 12:28:34;;;;;;;;;;;17.80;99.90;;;;;;4970599;28;20031;-79
2022/10/24 12:31:14;;;;;;;0.20;0.20;;;17.80;99.90;;;;;;4969377;28;20391;-76
2022/10/24 12:33:41;;;;;;;0.57;0.40;;;17.90;99.90;;;;;;4968295;28;20499;-80
2022/10/24 12:36:08;;;;;;;6.60;1.75;;;17.90;99.90;;;;;;4969878;28;20064;-76
2022/10/24 12:38:34;;;;;;;0.90;0.50;;;18.00;99.90;;;;;;4971245;28;20026;-76
2022/10/24 12:41:08;;;;;;;6.40;0.75;;;18.10;99.90;;;;;;4971810;28;20037;-78
2022/10/24 12:43:44;;;;;;;1.10;0.68;;;18.20;99.90;;;;;;4971650;28;20042;-78
2022/10/24 12:46:16;;;;;;;0.47;0.30;;;18.20;99.90;;;;;;4972067;28;20121;-79
2022/10/24 12:49:07;;;;;;;0.52;0.52;;;18.20;99.90;;;;;;4975163;28;20141;-79
2022/10/24 12:51:39;;;;;;;3.03;0.88;;;18.10;99.90;;;;;;4970103;28;20463;-78
2022/10/24 12:54:11;;;;;;;0.40;0.40;;;18.00;99.90;;;;;;4976873;28;20058;-78
2022/10/24 12:56:49;;;;;;;2.10;0.80;;;17.90;99.90;;;;;;4970372;28;20077;-77
2022/10/24 12:59:27;;;;;;;6.80;0.63;;;17.80;99.90;;;;;;4971304;28;20023;-77
2022/10/24 13:02:11;;;;;;;1.15;0.50;;;17.90;99.90;;;;;;4971964;28;20031;-77
2022/10/24 13:04:59;;;;;;;2.95;0.60;;;18.00;99.90;;;;;;4973728;28;20023;-80
2022/10/24 13:07:57;;;;;;;3.47;0.75;;;18.30;99.90;;;;;;4976319;28;20023;-80
2022/10/24 13:10:41;;;;;;;1.55;0.98;;;18.80;99.90;;;;;;4975638;28;20518;-79
2022/10/24 13:13:45;;;;;;;1.30;0.68;;;20.40;99.90;;;;;;4990377;28;20113;-77